Time;durP1;ratioP1;P1;durP2;ratioP2;P2;SDS_P1;SDS_P2;PMS_P1;PMS_P2;Temp;Humidity;BMP_temperature;BMP_pressure;BME280_temperature;BME280_humidity;BME280_pressure;Samples;Min_cycle;Max_cycle;Signal;HPM_P1;HPM_P2
2023/06/12 00:00:05;;;;;;;3.87;2.33;;;;;;;18.44;50.13;98987.19;4330652;32;35156;-87
2023/06/12 00:02:35;;;;;;;5.40;2.60;;;;;;;18.20;50.25;98999.06;4342751;32;35771;-86
2023/06/12 00:05:04;;;;;;;4.97;3.03;;;;;;;17.95;51.10;99004.78;4345650;32;33840;-86
2023/06/12 00:07:31;;;;;;;5.35;2.75;;;;;;;18.12;51.10;98996.59;4317720;32;32671;-85
2023/06/12 00:09:59;;;;;;;4.70;2.83;;;;;;;18.34;49.89;99002.28;4319855;33;33932;-87
2023/06/12 00:12:27;;;;;;;5.47;2.80;;;;;;;18.01;50.58;98987.22;4342566;32;33552;-86
2023/06/12 00:14:54;;;;;;;5.68;2.80;;;;;;;17.93;51.31;98988.25;4346599;32;33653;-87
2023/06/12 00:17:22;;;;;;;5.10;3.05;;;;;;;18.22;50.39;98992.00;4337941;33;33573;-85
2023/06/12 00:19:50;;;;;;;5.00;2.97;;;;;;;18.09;49.67;98985.31;4345967;33;34252;-85
2023/06/12 00:22:18;;;;;;;5.12;2.67;;;;;;;18.42;50.16;98979.34;4348370;32;34636;-84
2023/06/12 00:24:45;;;;;;;7.05;2.80;;;;;;;17.99;51.67;98984.63;4349153;32;33844;-86
2023/06/12 00:27:13;;;;;;;5.10;3.28;;;;;;;18.09;50.88;98985.31;4346166;33;35537;-85
2023/06/12 00:29:40;;;;;;;5.62;2.62;;;;;;;18.40;49.68;98975.88;4345535;33;33571;-84
2023/06/12 00:32:08;;;;;;;4.85;2.67;;;;;;;18.44;49.69;98984.56;4332232;33;33293;-87
2023/06/12 00:34:35;;;;;;;6.25;3.40;;;;;;;18.62;49.30;98986.78;4331593;32;33978;-85
2023/06/12 00:37:05;;;;;;;5.53;2.60;;;;;;;18.06;50.66;98990.62;4345494;33;34915;-85
2023/06/12 00:39:32;;;;;;;4.57;2.60;;;;;;;18.30;50.91;98989.25;4344653;32;33878;-87
2023/06/12 00:42:00;;;;;;;5.93;2.80;;;;;;;18.13;50.41;98981.72;4344810;32;33231;-87
2023/06/12 00:44:27;;;;;;;5.40;2.50;;;;;;;18.20;50.27;98988.56;4345734;33;34756;-89
2023/06/12 00:46:55;;;;;;;6.78;3.12;;;;;;;18.31;49.18;98970.84;4331453;33;35259;-86
2023/06/12 00:49:23;;;;;;;6.50;3.12;;;;;;;18.31;49.01;98986.59;4345771;33;34024;-86
2023/06/12 00:51:52;;;;;;;7.30;2.85;;;;;;;18.17;50.63;98986.00;4332745;33;34160;-87
2023/06/12 00:54:19;;;;;;;6.12;3.00;;;;;;;18.49;49.89;98982.72;4344936;32;34208;-86
2023/06/12 00:56:48;;;;;;;6.82;2.95;;;;;;;18.31;50.45;98976.09;4342820;33;34843;-86
2023/06/12 00:59:19;;;;;;;5.00;2.72;;;;;;;18.49;49.57;98974.84;4330113;33;33793;-86
2023/06/12 01:01:46;;;;;;;5.32;2.80;;;;;;;18.09;50.62;98987.94;4330158;32;33465;-84
2023/06/12 01:04:16;;;;;;;6.75;3.35;;;;;;;18.31;50.31;98975.22;4330415;33;33892;-85
2023/06/12 01:07:12;;;;;;;7.30;2.58;;;;;;;18.25;49.90;98976.22;4344404;32;34043;-87
2023/06/12 01:09:54;;;;;;;5.43;2.67;;;;;;;18.13;50.74;98976.47;4318418;33;33841;-85
2023/06/12 01:12:22;;;;;;;4.85;2.83;;;;;;;18.19;50.39;98971.13;4331026;33;33309;-86
2023/06/12 01:14:50;;;;;;;4.80;2.75;;;;;;;17.77;51.23;98970.19;4344107;32;34822;-86
2023/06/12 01:17:18;;;;;;;6.53;3.00;;;;;;;18.30;49.43;98968.28;4344759;32;33828;-88
2023/06/12 01:19:46;;;;;;;5.40;2.90;;;;;;;18.17;50.44;98962.41;4345240;32;33788;-85
2023/06/12 01:22:18;;;;;;;7.47;2.70;;;;;;;18.28;50.52;98970.91;4331090;33;34072;-87
2023/06/12 01:25:14;;;;;;;7.60;2.80;;;;;;;17.89;50.70;98969.97;4331645;33;34037;-85
2023/06/12 01:28:13;;;;;;;5.72;2.78;;;;;;;17.89;51.29;98970.84;4344228;32;33911;-87
2023/06/12 01:31:06;;;;;;;6.68;2.72;;;;;;;18.10;50.37;98969.53;4330189;33;33152;-86
2023/06/12 01:33:38;;;;;;;6.82;3.08;;;;;;;18.17;50.79;98978.13;4344950;32;34432;-86
2023/06/12 01:36:08;;;;;;;5.28;2.85;;;;;;;17.82;51.45;98974.47;4343478;32;33590;-87
2023/06/12 01:38:38;;;;;;;12.50;3.35;;;;;;;17.96;51.38;98972.44;4331222;33;34896;-87
2023/06/12 01:41:06;;;;;;;4.85;3.10;;;;;;;18.04;50.86;98976.69;4330367;33;33548;-84
2023/06/12 01:43:36;;;;;;;7.47;2.58;;;;;;;18.20;51.10;98981.56;4330709;33;33195;-84
2023/06/12 01:46:06;;;;;;;6.85;3.25;;;;;;;18.00;51.61;98981.13;4319827;33;33744;-84
2023/06/12 01:48:34;;;;;;;4.87;2.72;;;;;;;17.68;51.15;98977.31;4331860;33;33930;-87
2023/06/12 01:51:01;;;;;;;5.18;2.65;;;;;;;17.86;50.61;98977.91;4345695;33;33525;-87
2023/06/12 01:53:29;;;;;;;5.18;3.08;;;;;;;17.82;52.12;98982.34;4346058;33;34670;-86
2023/06/12 01:55:56;;;;;;;7.60;3.03;;;;;;;17.88;51.37;98983.97;4345716;33;33524;-87
2023/06/12 01:58:25;;;;;;;4.55;2.80;;;;;;;17.97;51.81;98996.91;4345615;33;34905;-86
2023/06/12 02:00:53;;;;;;;5.50;3.47;;;;;;;16.96;53.32;98985.59;4345370;33;34117;-88
2023/06/12 02:03:23;;;;;;;6.45;3.25;;;;;;;17.27;53.10;98986.81;4345539;33;33395;-85
2023/06/12 02:05:50;;;;;;;7.78;3.22;;;;;;;17.31;52.33;98974.50;4344044;32;34915;-85
2023/06/12 02:08:18;;;;;;;7.28;2.83;;;;;;;17.19;53.05;98979.97;4344526;33;34142;-87
2023/06/12 02:10:46;;;;;;;5.10;2.70;;;;;;;16.96;53.36;98978.59;4329541;33;33875;-86
2023/06/12 02:13:13;;;;;;;5.12;2.70;;;;;;;17.23;52.66;98982.50;4343580;32;33895;-85
2023/06/12 02:15:41;;;;;;;6.15;3.00;;;;;;;17.39;52.43;98987.50;4344884;33;34718;-85
2023/06/12 02:18:08;;;;;;;6.15;2.95;;;;;;;17.41;52.27;98985.69;4331842;33;33663;-87
2023/06/12 02:20:36;;;;;;;5.97;3.00;;;;;;;17.61;51.54;98977.47;4343739;32;33773;-85
2023/06/12 02:23:03;;;;;;;5.80;3.22;;;;;;;17.85;50.99;98971.81;4344706;33;34188;-86
2023/06/12 02:25:31;;;;;;;7.40;3.00;;;;;;;17.75;51.19;98972.87;4343983;32;34816;-87
2023/06/12 02:28:00;;;;;;;5.22;3.28;;;;;;;17.66;52.10;98979.13;4342234;32;33827;-86
2023/06/12 02:30:27;;;;;;;6.62;3.40;;;;;;;17.63;51.58;98983.56;4344334;32;33681;-86
2023/06/12 02:32:55;;;;;;;5.85;3.00;;;;;;;17.86;51.24;98984.00;4343026;32;33636;-86
2023/06/12 02:35:23;;;;;;;7.47;3.20;;;;;;;17.74;51.99;98976.34;4343556;33;34004;-87
2023/06/12 02:37:50;;;;;;;6.03;3.12;;;;;;;17.86;51.78;98980.53;4343393;33;34998;-87
2023/06/12 02:40:26;;;;;;;7.70;3.28;;;;;;;17.71;51.67;98984.28;4343713;32;33905;-85
2023/06/12 02:42:56;;;;;;;7.43;3.15;;;;;;;17.73;51.18;98980.75;4318142;33;33242;-86
2023/06/12 02:45:23;;;;;;;5.30;3.00;;;;;;;17.77;51.21;98978.97;4344875;33;33839;-87
2023/06/12 02:47:51;;;;;;;5.40;3.10;;;;;;;17.79;51.68;98986.78;4329883;32;34088;-86
2023/06/12 02:50:19;;;;;;;6.75;3.40;;;;;;;17.60;51.74;98975.75;4343677;32;33904;-87
2023/06/12 02:52:48;;;;;;;6.20;3.12;;;;;;;17.83;51.63;98981.44;4344630;33;33515;-88
2023/06/12 02:55:15;;;;;;;4.95;3.08;;;;;;;17.50;52.48;98991.66;4329802;33;32728;-87
2023/06/12 02:57:43;;;;;;;7.12;3.45;;;;;;;17.59;52.74;98989.75;4330039;32;34997;-86
2023/06/12 03:00:13;;;;;;;5.45;2.95;;;;;;;17.60;53.64;98991.47;4343888;32;34263;-87
2023/06/12 03:02:44;;;;;;;7.43;3.20;;;;;;;17.83;52.39;98994.56;4329782;33;32752;-87
2023/06/12 03:05:14;;;;;;;5.18;3.00;;;;;;;17.60;52.10;98986.22;4329802;32;33845;-87
2023/06/12 03:07:42;;;;;;;6.30;3.05;;;;;;;17.75;52.61;98985.97;4344344;33;34056;-86
2023/06/12 03:10:10;;;;;;;5.93;3.25;;;;;;;17.75;51.43;98983.34;4341926;32;34469;-86
2023/06/12 03:12:40;;;;;;;6.90;3.25;;;;;;;17.45;52.03;98988.22;4331038;33;33362;-87
2023/06/12 03:15:08;;;;;;;7.80;3.53;;;;;;;17.27;54.00;98988.56;4343827;32;33757;-87
2023/06/12 03:17:36;;;;;;;6.10;3.42;;;;;;;17.49;54.37;98982.03;4330492;33;33694;-87
2023/06/12 03:20:06;;;;;;;7.50;3.28;;;;;;;17.50;54.16;98990.75;4343965;32;33592;-88
2023/06/12 03:22:33;;;;;;;5.22;3.10;;;;;;;17.55;54.04;98990.72;4344160;33;34094;-86
2023/06/12 03:25:01;;;;;;;8.20;3.33;;;;;;;17.31;52.81;98997.22;4318853;33;34097;-86
2023/06/12 03:27:31;;;;;;;6.72;3.33;;;;;;;17.34;54.29;98989.31;4332603;33;32888;-86
2023/06/12 03:29:59;;;;;;;6.22;3.72;;;;;;;17.36;53.23;98988.41;4345631;33;34535;-87
2023/06/12 03:32:27;;;;;;;7.68;3.50;;;;;;;17.46;53.03;98995.22;4346322;33;33565;-87
2023/06/12 03:34:55;;;;;;;5.75;3.22;;;;;;;17.56;52.68;98990.66;4333390;33;33589;-84
2023/06/12 03:37:27;;;;;;;6.60;3.15;;;;;;;17.70;51.40;98998.28;4346233;33;33837;-86
2023/06/12 03:39:56;;;;;;;6.68;3.03;;;;;;;17.43;51.84;98987.41;4346387;33;35078;-86
2023/06/12 03:42:23;;;;;;;6.40;3.15;;;;;;;17.48;52.49;98988.19;4346074;33;33552;-87
2023/06/12 03:44:52;;;;;;;6.78;3.42;;;;;;;17.42;51.93;98987.41;4332656;33;33919;-87
2023/06/12 03:47:20;;;;;;;5.70;3.17;;;;;;;17.55;52.12;98990.72;4346497;33;34051;-89
2023/06/12 03:49:48;;;;;;;6.65;3.15;;;;;;;17.98;50.52;98986.38;4346345;33;34740;-86
2023/06/12 03:52:15;;;;;;;6.97;3.42;;;;;;;18.20;50.31;98992.06;4332683;33;32577;-87
2023/06/12 03:54:43;;;;;;;5.80;3.33;;;;;;;18.53;49.36;98986.13;4332581;33;34034;-88
2023/06/12 03:57:12;;;;;;;6.87;3.03;;;;;;;19.04;46.76;98978.81;4346249;33;34189;-87
2023/06/12 03:59:40;;;;;;;6.37;3.03;;;;;;;19.23;46.84;98979.22;4345836;33;34855;-85
2023/06/12 04:02:08;;;;;;;5.35;2.72;;;;;;;18.86;47.16;98974.00;4345660;33;33372;-87
2023/06/12 04:04:36;;;;;;;7.18;2.80;;;;;;;18.85;46.24;98973.13;4332866;33;34516;-88
2023/06/12 04:07:04;;;;;;;10.07;3.05;;;;;;;19.27;45.95;98980.84;4344486;32;34140;-86
2023/06/12 04:09:32;;;;;;;6.37;2.83;;;;;;;19.60;45.51;98978.25;4331960;33;33883;-87
2023/06/12 04:12:00;;;;;;;5.03;3.08;;;;;;;19.97;45.30;98978.16;4332054;32;32769;-86
2023/06/12 04:14:28;;;;;;;4.50;2.60;;;;;;;20.30;42.88;98971.03;4331216;33;33807;-87
2023/06/12 04:16:55;;;;;;;5.53;3.00;;;;;;;19.79;44.35;98974.25;4344652;32;34202;-87
2023/06/12 04:19:23;;;;;;;5.82;3.22;;;;;;;20.05;43.43;98972.66;4331611;33;34066;-85
2023/06/12 04:21:52;;;;;;;7.62;2.97;;;;;;;20.11;42.78;98978.59;4345523;32;33870;-88
2023/06/12 04:24:21;;;;;;;7.45;2.45;;;;;;;19.97;43.55;98972.87;4346055;33;34824;-88
2023/06/12 04:26:49;;;;;;;4.68;2.83;;;;;;;20.56;42.67;98974.66;4332875;33;35110;-87
2023/06/12 04:29:17;;;;;;;5.47;2.65;;;;;;;20.64;41.46;98976.16;4343838;32;33723;-87
2023/06/12 04:31:45;;;;;;;5.32;3.10;;;;;;;20.63;42.09;98976.22;4345534;33;33546;-87
2023/06/12 04:34:15;;;;;;;6.03;2.70;;;;;;;20.46;42.06;98975.84;4344410;32;33958;-87
2023/06/12 04:36:45;;;;;;;5.12;2.53;;;;;;;20.44;41.42;98973.25;4331740;33;35043;-88
2023/06/12 04:39:13;;;;;;;7.62;3.00;;;;;;;20.44;42.69;98967.97;4331421;33;34054;-88
2023/06/12 04:41:42;;;;;;;7.70;2.85;;;;;;;20.41;41.25;98974.19;4345311;33;33549;-86
2023/06/12 04:44:10;;;;;;;5.65;2.90;;;;;;;20.70;41.11;98979.53;4345701;33;33981;-88
2023/06/12 04:46:38;;;;;;;5.50;2.92;;;;;;;20.71;41.97;98981.25;4344543;32;34235;-86
2023/06/12 04:49:06;;;;;;;5.55;2.35;;;;;;;21.09;40.08;98977.38;4344579;32;33933;-87
2023/06/12 04:51:35;;;;;;;9.65;2.62;;;;;;;20.71;41.60;98984.72;4342743;32;33105;-88
2023/06/12 04:54:04;;;;;;;4.53;2.55;;;;;;;20.99;41.78;98978.59;4344445;32;34805;-87
2023/06/12 04:56:33;;;;;;;4.68;2.53;;;;;;;20.98;40.77;98979.50;4346031;33;33829;-89
2023/06/12 04:59:01;;;;;;;5.68;2.28;;;;;;;21.22;40.25;98977.84;4344056;32;34028;-85
2023/06/12 05:01:30;;;;;;;5.68;2.85;;;;;;;21.16;40.13;98978.03;4345865;33;33472;-86
2023/06/12 05:03:58;;;;;;;8.07;3.28;;;;;;;21.11;40.24;98978.19;4345655;33;33720;-88
2023/06/12 05:06:28;;;;;;;6.43;2.80;;;;;;;21.53;39.19;98988.22;4345168;33;33761;-87
2023/06/12 05:08:56;;;;;;;8.45;2.78;;;;;;;21.71;39.71;98992.00;4345937;33;33689;-87
2023/06/12 05:11:24;;;;;;;7.95;2.72;;;;;;;20.82;40.42;98989.66;4345873;33;33452;-89
2023/06/12 05:13:52;;;;;;;6.05;2.87;;;;;;;21.67;39.40;98991.25;4345813;33;34536;-88
2023/06/12 05:16:20;;;;;;;5.53;2.65;;;;;;;20.79;41.23;98990.62;4345769;33;34277;-87
2023/06/12 05:18:48;;;;;;;5.30;2.70;;;;;;;20.88;39.74;98989.50;4331986;33;34161;-88
2023/06/12 05:21:18;;;;;;;6.45;2.55;;;;;;;20.83;39.63;98997.50;4345126;33;34500;-85
2023/06/12 05:23:47;;;;;;;6.15;2.30;;;;;;;21.23;40.48;98987.47;4336672;33;34755;-88
2023/06/12 05:26:15;;;;;;;6.03;2.53;;;;;;;22.04;39.38;98995.19;4345424;33;34226;-87
2023/06/12 05:28:43;;;;;;;8.52;2.33;;;;;;;22.22;38.58;98984.00;4320193;33;34650;-88
2023/06/12 05:31:11;;;;;;;5.50;2.83;;;;;;;21.30;39.38;98986.34;4345665;33;33177;-88
2023/06/12 05:33:39;;;;;;;5.32;2.45;;;;;;;22.13;38.46;98983.47;4345372;33;35141;-86
2023/06/12 05:36:10;;;;;;;5.50;2.65;;;;;;;21.58;38.53;98986.28;4345160;32;35083;-87
2023/06/12 05:38:38;;;;;;;6.18;2.50;;;;;;;21.84;38.72;98978.31;4345659;33;34163;-88
2023/06/12 05:41:06;;;;;;;4.50;1.98;;;;;;;22.21;38.77;98982.28;4344804;33;33540;-90
2023/06/12 05:43:34;;;;;;;4.40;2.12;;;;;;;22.42;38.60;98982.38;4332296;32;33808;-89
2023/06/12 05:46:02;;;;;;;4.78;2.80;;;;;;;22.53;36.63;98977.53;4345424;33;35159;-87
2023/06/12 05:48:29;;;;;;;4.30;1.80;;;;;;;22.60;36.76;98979.00;4330933;33;34652;-87
2023/06/12 05:50:57;;;;;;;7.05;2.65;;;;;;;22.18;37.77;98990.31;4331866;33;33332;-86
2023/06/12 05:53:25;;;;;;;6.12;2.40;;;;;;;22.50;37.99;98988.22;4345724;33;33882;-87
2023/06/12 05:55:53;;;;;;;4.37;2.20;;;;;;;22.42;36.98;98985.00;4345049;33;35052;-91
2023/06/12 05:58:21;;;;;;;7.15;2.35;;;;;;;22.21;35.85;98992.84;4332291;33;33749;-87
2023/06/12 06:00:49;;;;;;;4.80;2.30;;;;;;;21.96;37.70;98995.47;4345696;33;33190;-87
2023/06/12 06:03:19;;;;;;;3.83;2.05;;;;;;;21.54;37.70;98992.59;4345820;33;33781;-88
2023/06/12 06:05:48;;;;;;;5.45;2.40;;;;;;;22.02;37.55;98995.25;4345005;33;34906;-87
2023/06/12 06:08:16;;;;;;;5.50;2.35;;;;;;;22.21;37.69;99003.41;4331841;33;34077;-87
2023/06/12 06:10:44;;;;;;;6.00;2.62;;;;;;;22.04;37.08;99005.75;4345113;33;33516;-87
2023/06/12 06:13:14;;;;;;;6.07;2.78;;;;;;;21.90;37.88;99000.13;4344276;33;33982;-87
2023/06/12 06:15:41;;;;;;;4.93;2.22;;;;;;;22.28;37.87;99004.91;4331710;33;34805;-88
2023/06/12 06:18:09;;;;;;;5.80;2.67;;;;;;;21.96;37.40;99007.81;4345705;33;33677;-91
2023/06/12 06:20:36;;;;;;;6.10;2.12;;;;;;;22.57;37.96;99002.91;4342162;33;87200;-87
2023/06/12 06:23:04;;;;;;;4.37;2.12;;;;;;;22.69;36.60;98999.81;4345396;33;34818;-87
2023/06/12 06:25:32;;;;;;;7.60;2.50;;;;;;;22.71;36.15;99003.25;4331963;33;33832;-88
2023/06/12 06:28:00;;;;;;;5.03;2.15;;;;;;;22.51;35.50;99001.38;4345201;33;34750;-87
2023/06/12 06:30:28;;;;;;;6.60;2.50;;;;;;;23.04;36.02;98995.78;4344459;33;33452;-88
2023/06/12 06:32:56;;;;;;;4.22;2.25;;;;;;;23.13;35.35;98998.97;4344926;33;34120;-87
2023/06/12 06:35:23;;;;;;;7.97;2.17;;;;;;;22.75;35.55;98999.56;4344625;33;34126;-90
2023/06/12 06:37:51;;;;;;;6.20;2.37;;;;;;;23.23;36.39;99006.47;4344217;33;34179;-89
2023/06/12 06:40:19;;;;;;;6.80;2.40;;;;;;;22.98;35.35;98993.38;4344403;33;33576;-87
2023/06/12 06:42:46;;;;;;;4.75;2.35;;;;;;;22.23;35.21;99006.84;4344969;33;33626;-92
2023/06/12 06:45:20;;;;;;;5.62;1.92;;;;;;;22.21;37.10;99013.09;4345234;33;34615;-87
2023/06/12 06:47:47;;;;;;;6.10;2.30;;;;;;;21.36;37.03;99005.47;4345135;33;33920;-90
2023/06/12 06:50:17;;;;;;;5.30;2.60;;;;;;;21.71;36.75;99011.34;4332256;33;33651;-87
2023/06/12 06:52:46;;;;;;;4.32;1.90;;;;;;;21.99;37.76;99013.84;4344701;33;33797;-87
2023/06/12 06:55:14;;;;;;;3.65;1.80;;;;;;;22.53;36.99;99003.94;4331224;33;34986;-87
2023/06/12 06:57:42;;;;;;;5.05;2.50;;;;;;;22.62;35.49;99011.53;4344029;32;33761;-87
2023/06/12 07:00:11;;;;;;;5.50;2.03;;;;;;;22.21;36.49;99016.59;4344845;33;34168;-89
2023/06/12 07:02:42;;;;;;;6.93;2.40;;;;;;;22.19;35.97;99012.28;4344937;32;34813;-88
2023/06/12 07:05:11;;;;;;;10.63;2.10;;;;;;;22.57;35.58;99010.84;4346308;33;35197;-87
2023/06/12 07:07:40;;;;;;;3.75;1.90;;;;;;;22.22;35.45;99007.75;4345380;33;34687;-90
2023/06/12 07:10:26;;;;;;;7.30;2.10;;;;;;;22.01;34.83;99026.97;4346197;33;33370;-88
2023/06/12 07:12:57;;;;;;;4.35;2.12;;;;;;;22.30;36.07;99026.81;4344019;33;34310;-87
2023/06/12 07:15:25;;;;;;;5.65;1.90;;;;;;;22.08;35.39;99020.56;4345397;33;35023;-88
2023/06/12 07:17:54;;;;;;;5.72;2.10;;;;;;;22.82;35.50;99016.91;4332246;33;32445;-89
2023/06/12 07:20:22;;;;;;;4.22;1.90;;;;;;;22.78;35.35;99015.28;4346823;33;33497;-89
2023/06/12 07:22:50;;;;;;;5.50;2.30;;;;;;;22.97;33.25;99014.59;4346757;33;34433;-89
2023/06/12 07:25:17;;;;;;;6.75;1.95;;;;;;;22.86;33.58;99009.72;4346501;33;33935;-88
2023/06/12 07:27:45;;;;;;;10.13;2.08;;;;;;;22.77;33.58;99010.94;4346634;33;34063;-88
2023/06/12 07:30:14;;;;;;;5.20;1.90;;;;;;;23.56;34.48;99008.59;4346569;33;33255;-88
2023/06/12 07:32:42;;;;;;;6.40;1.75;;;;;;;22.89;33.40;99012.22;4346682;33;33737;-89
2023/06/12 07:35:09;;;;;;;4.90;1.90;;;;;;;23.25;33.27;99007.25;4346478;33;33962;-90
2023/06/12 07:37:38;;;;;;;7.10;2.10;;;;;;;23.37;34.09;98997.06;4346750;33;34338;-89
2023/06/12 07:40:08;;;;;;;8.43;2.20;;;;;;;23.01;33.52;99008.25;4346465;33;34410;-90
2023/06/12 07:42:37;;;;;;;7.80;1.65;;;;;;;22.40;33.95;99018.56;4333121;33;33998;-88
2023/06/12 07:45:06;;;;;;;7.12;2.00;;;;;;;22.50;33.38;99009.34;4346595;33;34879;-88
2023/06/12 07:47:33;;;;;;;6.18;1.58;;;;;;;23.34;32.97;99007.81;4332813;33;34888;-89
2023/06/12 07:50:02;;;;;;;4.10;1.83;;;;;;;22.99;32.61;99003.03;4346531;33;32957;-90
2023/06/12 07:52:30;;;;;;;4.12;1.58;;;;;;;22.89;32.97;99011.38;4333426;33;34129;-91
2023/06/12 07:54:58;;;;;;;6.62;1.73;;;;;;;22.96;32.69;99020.81;4346526;33;33761;-91
2023/06/12 07:57:25;;;;;;;7.85;2.20;;;;;;;22.38;32.48;99013.31;4333000;33;34368;-90
2023/06/12 07:59:54;;;;;;;4.60;1.75;;;;;;;22.59;32.05;99009.00;4346335;33;33508;-89
2023/06/12 08:02:22;;;;;;;6.00;1.92;;;;;;;22.57;32.98;99008.19;4346310;33;33709;-89
2023/06/12 08:04:50;;;;;;;8.55;1.90;;;;;;;23.24;32.75;98994.97;4346421;33;34892;-89
2023/06/12 08:07:19;;;;;;;4.45;1.98;;;;;;;23.09;30.93;98982.38;4346637;33;33501;-89
2023/06/12 08:09:47;;;;;;;6.03;2.08;;;;;;;23.41;32.30;98982.78;4332999;33;33211;-89
2023/06/12 08:12:15;;;;;;;7.03;1.58;;;;;;;23.61;30.85;99001.34;4345197;33;34059;-89
2023/06/12 08:14:42;;;;;;;5.95;2.20;;;;;;;23.20;31.44;99006.59;4338662;33;33832;-90
2023/06/12 08:17:11;;;;;;;3.25;1.37;;;;;;;23.40;30.21;99002.25;4346278;33;34352;-89
2023/06/12 08:19:42;;;;;;;4.40;1.55;;;;;;;22.69;31.19;98994.53;4346080;33;34133;-89
2023/06/12 08:22:11;;;;;;;5.22;1.80;;;;;;;22.56;32.66;98998.56;4344934;33;33902;-90
2023/06/12 08:24:41;;;;;;;4.43;1.40;;;;;;;22.25;32.61;98999.72;4360957;32;35070;-89
2023/06/12 08:27:10;;;;;;;5.28;1.70;;;;;;;22.52;32.76;98995.16;4361352;32;33605;-90
2023/06/12 08:29:39;;;;;;;7.95;1.73;;;;;;;22.38;32.25;98993.97;4347744;32;33299;-89
2023/06/12 08:32:07;;;;;;;5.12;1.48;;;;;;;22.47;32.47;98993.63;4361088;32;33933;-89
2023/06/12 08:34:36;;;;;;;4.35;1.67;;;;;;;22.85;32.83;99001.84;4361482;32;34713;-89
2023/06/12 08:37:03;;;;;;;6.30;1.85;;;;;;;23.06;31.12;98993.06;4360927;32;34213;-89
2023/06/12 08:39:31;;;;;;;6.47;2.00;;;;;;;23.02;32.09;98991.47;4361096;32;33339;-89
2023/06/12 08:42:12;;;;;;;5.65;2.35;;;;;;;23.37;31.62;98997.06;4361134;32;33639;-89
2023/06/12 08:44:40;;;;;;;6.32;2.08;;;;;;;24.00;31.63;99003.19;4347362;32;34235;-91
2023/06/12 08:47:08;;;;;;;6.03;1.83;;;;;;;23.64;29.66;99000.34;4335652;32;34407;-90
2023/06/12 08:49:37;;;;;;;9.68;2.55;;;;;;;23.65;29.49;99005.56;4347334;32;33293;-89
2023/06/12 08:52:06;;;;;;;3.87;1.50;;;;;;;23.61;29.68;98990.75;4360946;32;33766;-90
2023/06/12 08:54:34;;;;;;;5.20;1.73;;;;;;;23.79;29.82;99007.66;4323141;32;34394;-89
2023/06/12 08:57:04;;;;;;;3.12;1.40;;;;;;;23.69;30.21;99009.84;4347271;32;33989;-90
2023/06/12 08:59:32;;;;;;;7.28;1.67;;;;;;;24.30;29.68;99000.09;4347027;32;34091;-91
2023/06/12 09:02:01;;;;;;;6.50;1.77;;;;;;;24.58;29.02;98999.69;4360652;32;34459;-89
2023/06/12 09:04:44;;;;;;;4.12;1.48;;;;;;;24.31;28.71;98991.22;4348896;32;33859;-89
2023/06/12 09:07:17;;;;;;;4.60;1.35;;;;;;;23.86;29.80;98989.69;4347563;32;34099;-89
2023/06/12 09:09:46;;;;;;;5.07;1.52;;;;;;;24.21;29.94;98999.59;4360921;32;33256;-89
2023/06/12 09:12:15;;;;;;;3.22;1.35;;;;;;;24.10;29.96;98991.28;4360707;32;33774;-91
2023/06/12 09:14:45;;;;;;;5.37;1.98;;;;;;;24.24;31.19;98991.50;4347135;32;34152;-89
2023/06/12 09:17:13;;;;;;;4.62;1.52;;;;;;;24.49;30.49;98985.94;4335104;32;33980;-89
2023/06/12 09:19:43;;;;;;;6.03;1.50;;;;;;;24.50;29.36;98992.09;4347364;32;33219;-90
2023/06/12 09:22:11;;;;;;;5.30;1.90;;;;;;;24.22;30.43;98992.50;4360867;32;34799;-89
2023/06/12 09:24:40;;;;;;;8.82;1.90;;;;;;;24.45;29.83;98983.53;4360690;32;33623;-90
2023/06/12 09:27:08;;;;;;;6.78;1.70;;;;;;;23.76;30.35;99000.72;4360418;32;33852;-91
2023/06/12 09:29:38;;;;;;;4.00;1.70;;;;;;;23.97;30.08;98998.88;4360689;32;34329;-89
2023/06/12 09:32:11;;;;;;;4.47;1.75;;;;;;;24.04;29.82;99000.34;4360464;32;34073;-87
2023/06/12 09:34:44;;;;;;;5.18;2.10;;;;;;;24.27;29.98;99006.38;4360501;32;34259;-90
2023/06/12 09:37:14;;;;;;;5.25;1.80;;;;;;;24.35;29.52;98998.09;4360518;32;34145;-90
2023/06/12 09:39:42;;;;;;;5.28;2.40;;;;;;;24.19;30.16;98990.84;4360814;32;33830;-89
2023/06/12 09:42:11;;;;;;;6.05;1.70;;;;;;;24.09;31.35;99002.78;4346936;32;33425;-91
2023/06/12 09:44:39;;;;;;;6.03;1.62;;;;;;;23.63;30.67;98991.53;4360610;32;34599;-90
2023/06/12 09:47:07;;;;;;;5.00;1.40;;;;;;;24.28;30.82;98997.50;4347060;32;33551;-90
2023/06/12 09:49:38;;;;;;;4.47;1.52;;;;;;;24.10;28.57;99003.66;4347341;32;33360;-90
2023/06/12 09:52:23;;;;;;;5.73;1.70;;;;;;;24.37;30.42;98986.50;4348803;32;34427;-90
2023/06/12 09:54:54;;;;;;;4.78;1.67;;;;;;;24.92;30.31;98999.78;4360348;32;34056;-91
2023/06/12 09:57:22;;;;;;;5.43;1.70;;;;;;;25.11;29.12;98985.66;4346880;32;33683;-91
2023/06/12 09:59:51;;;;;;;4.18;1.40;;;;;;;24.96;30.07;98996.09;4346983;32;33624;-89
2023/06/12 10:02:19;;;;;;;5.57;1.55;;;;;;;25.04;29.00;98992.19;4346838;32;33465;-90
2023/06/12 10:05:02;;;;;;;3.50;1.45;;;;;;;24.88;28.92;98986.75;4360297;32;34551;-89
2023/06/12 10:07:41;;;;;;;6.50;1.45;;;;;;;24.54;29.25;98990.16;4360312;32;33989;-89
2023/06/12 10:10:10;;;;;;;10.75;2.33;;;;;;;24.78;30.66;98998.78;4347091;32;32758;-89
2023/06/12 10:12:38;;;;;;;5.68;1.80;;;;;;;24.71;31.21;98995.53;4346569;32;34523;-89
2023/06/12 10:15:06;;;;;;;6.65;1.92;;;;;;;24.64;30.68;99000.28;4346812;32;34043;-89
2023/06/12 10:17:35;;;;;;;6.93;1.80;;;;;;;24.73;30.44;98996.31;4346390;32;34095;-90
2023/06/12 10:20:03;;;;;;;4.32;1.50;;;;;;;25.08;30.89;98993.75;4360202;32;34159;-89
2023/06/12 10:22:30;;;;;;;5.18;1.50;;;;;;;25.02;29.80;98984.31;4360030;32;34024;-90
2023/06/12 10:24:58;;;;;;;3.90;1.60;;;;;;;25.16;30.11;98989.81;4359963;32;34149;-89
2023/06/12 10:27:26;;;;;;;7.47;1.70;;;;;;;24.53;31.45;98991.97;4346442;32;33900;-90
2023/06/12 10:29:58;;;;;;;4.75;1.58;;;;;;;24.46;30.48;98985.22;4346742;32;33568;-88
2023/06/12 10:32:31;;;;;;;6.00;1.50;;;;;;;24.27;31.59;98994.00;4359954;32;33790;-89
2023/06/12 10:35:01;;;;;;;3.97;1.48;;;;;;;24.95;30.76;98981.09;4347103;32;35044;-90
2023/06/12 10:37:31;;;;;;;5.53;1.65;;;;;;;24.96;29.65;98976.62;4361542;32;33967;-90
2023/06/12 10:40:15;;;;;;;6.70;1.50;;;;;;;25.33;28.54;98982.81;4335790;32;33808;-89
2023/06/12 10:43:00;;;;;;;4.50;1.52;;;;;;;25.21;29.52;98974.53;4348610;32;34926;-91
2023/06/12 10:45:31;;;;;;;3.40;1.45;;;;;;;25.72;28.03;98980.78;4361625;32;34806;-91
2023/06/12 10:48:03;;;;;;;4.75;1.62;;;;;;;25.88;30.81;98974.69;4348134;32;34771;-90
2023/06/12 10:50:31;;;;;;;8.50;1.83;;;;;;;26.02;28.73;98972.13;4361678;32;34517;-90
2023/06/12 10:53:06;;;;;;;5.37;1.55;;;;;;;26.06;30.99;98973.69;4361770;32;33642;-89
2023/06/12 10:55:37;;;;;;;3.15;1.60;;;;;;;26.00;30.23;98971.37;4361623;32;35093;-89
2023/06/12 10:58:07;;;;;;;4.45;1.58;;;;;;;26.36;29.97;98972.97;4348058;32;33665;-90
2023/06/12 11:00:43;;;;;;;4.40;1.30;;;;;;;26.24;27.52;98971.00;4361398;32;33545;-90
2023/06/12 11:03:12;;;;;;;5.68;1.92;;;;;;;25.42;29.98;98974.38;4347970;32;34721;-90
2023/06/12 11:05:47;;;;;;;9.02;1.37;;;;;;;25.20;29.59;98972.81;4361534;32;34957;-90
2023/06/12 11:08:15;;;;;;;4.75;1.65;;;;;;;25.09;29.55;98958.34;4348126;32;34164;-89
2023/06/12 11:10:44;;;;;;;4.37;1.60;;;;;;;25.36;28.71;98959.63;4347915;32;34458;-90
2023/06/12 11:13:11;;;;;;;3.47;1.65;;;;;;;24.96;29.30;98956.31;4347789;32;34688;-89
2023/06/12 11:15:46;;;;;;;5.43;1.50;;;;;;;24.97;30.54;98959.81;4361287;32;35212;-89
2023/06/12 11:18:14;;;;;;;4.82;2.00;;;;;;;24.69;30.81;98954.97;4347708;32;33215;-89
2023/06/12 11:20:42;;;;;;;5.57;1.60;;;;;;;24.55;32.55;98950.38;4361234;32;33254;-89
2023/06/12 11:23:09;;;;;;;7.97;1.70;;;;;;;24.79;29.95;98947.44;4361268;32;33134;-90
2023/06/12 11:25:43;;;;;;;4.90;1.48;;;;;;;24.45;29.42;98952.56;4361381;32;35043;-90
2023/06/12 11:28:12;;;;;;;4.93;1.60;;;;;;;24.89;30.21;98940.75;4348045;32;34177;-89
2023/06/12 11:30:40;;;;;;;7.62;1.73;;;;;;;24.78;30.03;98943.09;4348146;32;34149;-89
2023/06/12 11:33:27;;;;;;;4.82;1.70;;;;;;;25.11;31.12;98946.72;4361468;32;34088;-89
2023/06/12 11:35:59;;;;;;;4.22;1.45;;;;;;;24.62;28.97;98935.00;4347926;32;34334;-90
2023/06/12 11:38:27;;;;;;;5.62;1.77;;;;;;;25.32;31.51;98942.16;4347557;32;34634;-90
2023/06/12 11:40:57;;;;;;;7.18;1.62;;;;;;;25.32;30.03;98944.81;4348331;32;33640;-89
2023/06/12 11:43:26;;;;;;;3.40;1.40;;;;;;;25.27;30.92;98946.84;4361338;32;34644;-90